createdAt,value
2019-01-08T00:00:13.456Z,7.40
2019-01-08T00:02:39.407Z,7.40
2019-01-08T00:05:06.117Z,7.20
2019-01-08T00:07:32.056Z,7.20
2019-01-08T00:09:58.029Z,7.20
2019-01-08T00:12:23.977Z,7.20
2019-01-08T00:14:49.951Z,7.10
2019-01-08T00:17:15.922Z,7.10
2019-01-08T00:19:41.940Z,7.10
2019-01-08T00:22:07.887Z,7.00
2019-01-08T00:24:33.885Z,7.00
2019-01-08T00:26:59.834Z,7.00
2019-01-08T00:29:25.816Z,7.00
2019-01-08T00:31:51.774Z,7.00
2019-01-08T00:34:17.737Z,7.00
2019-01-08T00:36:43.740Z,7.00
2019-01-08T00:39:10.420Z,7.00
2019-01-08T00:41:36.383Z,7.00
2019-01-08T00:44:02.408Z,7.00
2019-01-08T00:46:28.384Z,6.90
2019-01-08T00:48:54.358Z,7.10
2019-01-08T00:51:21.103Z,7.00
2019-01-08T00:53:47.049Z,7.00
2019-01-08T00:56:13.754Z,7.00
2019-01-08T00:58:39.713Z,7.00
2019-01-08T01:01:06.413Z,7.10
2019-01-08T01:03:32.390Z,7.10
2019-01-08T01:05:58.380Z,7.20
2019-01-08T01:08:25.085Z,7.30
2019-01-08T01:10:51.158Z,7.20
2019-01-08T01:13:17.097Z,7.30
2019-01-08T01:15:43.083Z,7.30
2019-01-08T01:18:09.020Z,7.40
2019-01-08T01:20:35.723Z,7.40
2019-01-08T01:23:01.669Z,7.40
2019-01-08T01:25:27.610Z,7.40
2019-01-08T01:27:54.322Z,7.50
2019-01-08T01:30:20.267Z,7.50
2019-01-08T01:32:46.966Z,7.50
2019-01-08T01:35:12.901Z,7.50
2019-01-08T01:37:38.880Z,7.50
2019-01-08T01:40:04.823Z,7.50
2019-01-08T01:42:30.791Z,7.50
2019-01-08T01:44:57.473Z,7.50
2019-01-08T01:47:23.440Z,7.50
2019-01-08T01:49:49.384Z,7.50
2019-01-08T01:52:16.098Z,7.40
2019-01-08T01:54:42.808Z,7.30
2019-01-08T01:57:09.541Z,7.20
2019-01-08T01:59:35.493Z,7.20
2019-01-08T02:02:01.457Z,7.10
2019-01-08T02:04:27.491Z,7.00
2019-01-08T02:06:53.507Z,7.00
2019-01-08T02:09:19.519Z,7.00
2019-01-08T02:11:45.496Z,7.00
2019-01-08T02:14:11.482Z,7.00
2019-01-08T02:16:37.450Z,7.00
2019-01-08T02:19:03.427Z,7.00
2019-01-08T02:21:29.414Z,7.00
2019-01-08T02:23:56.156Z,7.00
2019-01-08T02:26:22.866Z,6.90
2019-01-08T02:28:48.884Z,6.90
2019-01-08T02:31:14.844Z,7.00
2019-01-08T02:33:41.556Z,7.00
2019-01-08T02:36:07.544Z,6.90
2019-01-08T02:38:33.530Z,7.00
2019-01-08T02:41:00.272Z,7.10
2019-01-08T02:43:26.966Z,7.10
2019-01-08T02:45:52.956Z,7.10
2019-01-08T02:48:18.928Z,7.10
2019-01-08T02:50:44.926Z,7.20
2019-01-08T02:53:10.903Z,7.20
2019-01-08T02:55:37.608Z,7.20
2019-01-08T02:58:03.594Z,7.20
2019-01-08T03:00:29.578Z,7.30
2019-01-08T03:02:56.317Z,7.40
2019-01-08T03:05:23.035Z,7.40
2019-01-08T03:07:49.018Z,7.50
2019-01-08T03:10:14.968Z,7.40
2019-01-08T03:12:40.966Z,7.50
2019-01-08T03:15:06.920Z,7.50
2019-01-08T03:17:32.894Z,7.60
2019-01-08T03:19:59.595Z,7.60
2019-01-08T03:22:25.573Z,7.60
2019-01-08T03:24:51.533Z,7.70
2019-01-08T03:27:17.515Z,7.70
2019-01-08T03:29:43.486Z,7.60
2019-01-08T03:32:09.463Z,7.60
2019-01-08T03:34:35.453Z,7.60
2019-01-08T03:37:02.156Z,7.60
2019-01-08T03:39:28.129Z,7.60
2019-01-08T03:41:54.100Z,7.60
2019-01-08T03:44:20.074Z,7.60
2019-01-08T03:46:46.762Z,7.60
2019-01-08T03:49:12.756Z,7.60
2019-01-08T03:51:38.718Z,7.60
2019-01-08T03:54:04.696Z,7.60
2019-01-08T03:56:30.628Z,7.60
2019-01-08T03:58:56.578Z,7.60
2019-01-08T04:01:22.541Z,7.60
2019-01-08T04:03:49.238Z,7.60
2019-01-08T04:06:15.210Z,7.60
2019-01-08T04:08:41.918Z,7.50
2019-01-08T04:11:07.884Z,7.60
2019-01-08T04:13:34.561Z,7.50
2019-01-08T04:16:00.529Z,7.50
2019-01-08T04:18:27.223Z,7.30
2019-01-08T04:20:53.207Z,7.30
2019-01-08T04:23:19.132Z,7.20
2019-01-08T04:25:45.826Z,7.20
2019-01-08T04:28:11.930Z,7.10
2019-01-08T04:30:37.956Z,7.20
2019-01-08T04:33:03.913Z,7.30
2019-01-08T04:35:29.868Z,7.30
2019-01-08T04:37:55.842Z,7.30
2019-01-08T04:40:21.794Z,7.30
2019-01-08T04:42:48.499Z,7.20
2019-01-08T04:45:14.825Z,7.30
2019-01-08T04:47:40.479Z,7.30
2019-01-08T04:50:07.169Z,7.30
2019-01-08T04:52:33.131Z,7.30
2019-01-08T04:54:59.839Z,7.40
2019-01-08T04:57:25.805Z,7.40
2019-01-08T04:59:58.935Z,7.40
2019-01-08T05:02:19.230Z,7.40
2019-01-08T05:04:45.219Z,7.50
2019-01-08T05:07:11.177Z,7.50
2019-01-08T05:09:37.171Z,7.40
2019-01-08T05:12:03.103Z,7.40
2019-01-08T05:14:29.083Z,7.40
2019-01-08T05:16:55.818Z,7.40
2019-01-08T05:19:21.793Z,7.40
2019-01-08T05:21:47.745Z,7.40
2019-01-08T05:24:13.723Z,7.40
2019-01-08T05:26:39.710Z,7.40
2019-01-08T05:29:05.659Z,7.50
2019-01-08T05:31:31.635Z,7.50
2019-01-08T05:33:57.624Z,7.50
2019-01-08T05:36:23.612Z,7.50
2019-01-08T05:38:50.323Z,7.40
2019-01-08T05:41:16.291Z,7.40
2019-01-08T05:43:42.978Z,7.40
2019-01-08T05:46:08.964Z,7.40
2019-01-08T05:48:34.913Z,7.40
2019-01-08T05:51:00.900Z,7.50
2019-01-08T05:53:26.867Z,7.50
2019-01-08T05:55:52.819Z,7.40
2019-01-08T05:58:19.546Z,7.40
2019-01-08T06:00:45.499Z,7.40
2019-01-08T06:03:12.211Z,7.40
2019-01-08T06:05:38.164Z,7.40
2019-01-08T06:08:04.877Z,7.30
2019-01-08T06:10:31.595Z,7.20
2019-01-08T06:12:57.593Z,7.20
2019-01-08T06:15:23.545Z,7.20
2019-01-08T06:17:49.531Z,7.00
2019-01-08T06:20:15.555Z,7.10
2019-01-08T06:22:41.530Z,7.10
2019-01-08T06:25:07.473Z,7.20
2019-01-08T06:27:34.184Z,7.20
2019-01-08T06:30:00.180Z,7.20
2019-01-08T06:32:26.135Z,7.30
2019-01-08T06:34:52.847Z,7.30
2019-01-08T06:37:18.789Z,7.40
2019-01-08T06:39:44.772Z,7.30
2019-01-08T06:42:10.758Z,7.20
2019-01-08T06:44:36.722Z,7.20
2019-01-08T06:47:02.711Z,7.30
2019-01-08T06:49:29.429Z,7.30
2019-01-08T06:51:55.401Z,7.30
2019-01-08T06:54:21.387Z,7.30
2019-01-08T06:56:47.323Z,7.30
2019-01-08T06:59:14.006Z,7.40
2019-01-08T07:01:39.989Z,7.40
2019-01-08T07:04:06.675Z,7.40
2019-01-08T07:06:32.648Z,7.40
2019-01-08T07:08:58.589Z,7.40
2019-01-08T07:11:24.559Z,7.40
2019-01-08T07:13:51.413Z,7.40
2019-01-08T07:16:16.541Z,7.40
2019-01-08T07:18:42.507Z,7.40
2019-01-08T07:21:08.489Z,7.30
2019-01-08T07:23:34.442Z,7.40
2019-01-08T07:26:01.169Z,7.40
2019-01-08T07:28:27.124Z,7.40
2019-01-08T07:30:53.060Z,7.40
2019-01-08T07:33:19.030Z,7.30
2019-01-08T07:35:44.976Z,7.30
2019-01-08T07:38:10.946Z,7.30
2019-01-08T07:40:37.635Z,7.40
2019-01-08T07:43:03.611Z,7.40
2019-01-08T07:45:29.560Z,7.40
2019-01-08T07:47:55.550Z,7.50
2019-01-08T07:50:22.255Z,7.50
2019-01-08T07:52:48.974Z,7.50
2019-01-08T07:55:14.911Z,7.50
2019-01-08T07:57:40.867Z,7.50
2019-01-08T08:00:07.616Z,7.40
2019-01-08T08:02:34.298Z,7.40
2019-01-08T08:05:00.273Z,7.40
2019-01-08T08:07:26.949Z,7.50
2019-01-08T08:09:52.938Z,7.50
2019-01-08T08:12:19.624Z,7.60
2019-01-08T08:14:45.608Z,7.50
2019-01-08T08:17:12.311Z,7.70
2019-01-08T08:19:38.291Z,7.70
2019-01-08T08:22:04.247Z,7.70
2019-01-08T08:24:30.190Z,7.70
2019-01-08T08:26:56.159Z,7.80
2019-01-08T08:29:22.091Z,7.90
2019-01-08T08:31:48.079Z,8.00
2019-01-08T08:34:14.049Z,8.00
2019-01-08T08:36:40.037Z,8.00
2019-01-08T08:39:06.001Z,8.00
2019-01-08T08:41:31.956Z,8.00
2019-01-08T08:43:57.901Z,8.00
2019-01-08T08:46:24.619Z,8.00
2019-01-08T08:48:51.307Z,8.00
2019-01-08T08:51:17.257Z,8.00
2019-01-08T08:53:43.227Z,8.00
2019-01-08T08:56:09.935Z,7.90
2019-01-08T08:58:35.931Z,8.00
2019-01-08T09:01:06.862Z,8.00
2019-01-08T09:03:27.928Z,8.00
2019-01-08T09:05:54.623Z,7.90
2019-01-08T09:08:20.610Z,7.90
2019-01-08T09:10:46.549Z,7.90
2019-01-08T09:13:12.513Z,7.80
2019-01-08T09:15:38.484Z,7.80
2019-01-08T09:18:04.463Z,7.80
2019-01-08T09:20:37.319Z,7.90
2019-01-08T09:23:03.322Z,7.90
2019-01-08T09:25:29.304Z,7.90
2019-01-08T09:27:56.006Z,7.80
2019-01-08T09:30:21.985Z,7.80
2019-01-08T09:32:47.928Z,7.80
2019-01-08T09:35:13.897Z,7.70
2019-01-08T09:37:40.605Z,7.70
2019-01-08T09:40:06.649Z,7.70
2019-01-08T09:42:32.580Z,7.80
2019-01-08T09:44:59.318Z,7.80
2019-01-08T09:47:25.308Z,7.80
2019-01-08T09:49:51.297Z,7.80
2019-01-08T09:52:17.272Z,7.80
2019-01-08T09:54:43.236Z,7.70
2019-01-08T09:57:09.927Z,7.60
2019-01-08T09:59:35.913Z,7.60
2019-01-08T10:02:01.858Z,7.50
2019-01-08T10:04:27.845Z,7.50
2019-01-08T10:06:53.811Z,7.50
2019-01-08T10:09:19.772Z,7.50
2019-01-08T10:11:46.524Z,7.70
2019-01-08T10:14:12.480Z,7.60
2019-01-08T10:16:38.472Z,7.70
2019-01-08T10:19:04.429Z,7.70
2019-01-08T10:21:30.428Z,7.80
2019-01-08T10:23:56.386Z,7.80
2019-01-08T10:26:22.406Z,7.90
2019-01-08T10:28:48.367Z,7.90
2019-01-08T10:31:15.094Z,8.00
2019-01-08T10:33:41.054Z,8.00
2019-01-08T10:36:07.745Z,8.00
2019-01-08T10:38:33.728Z,8.00
2019-01-08T10:40:59.693Z,8.00
2019-01-08T10:43:25.693Z,8.00
2019-01-08T10:45:51.627Z,8.10
2019-01-08T10:48:17.623Z,8.00
2019-01-08T10:50:43.633Z,7.80
2019-01-08T10:53:09.618Z,7.80
2019-01-08T10:55:35.556Z,7.80
2019-01-08T10:58:02.261Z,7.80
2019-01-08T11:00:28.199Z,7.70
2019-01-08T11:02:54.163Z,7.80
2019-01-08T11:05:20.111Z,7.90
2019-01-08T11:07:46.108Z,7.90
2019-01-08T11:10:12.048Z,8.00
2019-01-08T11:12:38.010Z,8.00
2019-01-08T11:15:03.974Z,8.00
2019-01-08T11:17:29.944Z,8.10
2019-01-08T11:19:55.886Z,8.30
2019-01-08T11:22:21.871Z,8.30
2019-01-08T11:24:47.837Z,8.20
2019-01-08T11:27:13.766Z,8.10
2019-01-08T11:29:40.487Z,8.30
2019-01-08T11:32:06.451Z,8.20
2019-01-08T11:34:32.415Z,8.30
2019-01-08T11:36:58.356Z,8.30
2019-01-08T11:39:24.324Z,8.30
2019-01-08T11:41:50.254Z,8.30
2019-01-08T11:44:16.233Z,8.30
2019-01-08T11:46:42.173Z,8.40
2019-01-08T11:49:08.916Z,8.30
2019-01-08T11:51:35.608Z,8.00
2019-01-08T11:54:01.554Z,8.10
2019-01-08T11:56:28.288Z,7.10
2019-01-08T11:58:54.263Z,7.10
2019-01-08T12:01:20.240Z,6.70
2019-01-08T12:03:46.955Z,6.20
2019-01-08T12:06:12.964Z,6.20
2019-01-08T12:08:38.943Z,6.10
2019-01-08T12:11:05.680Z,6.40
2019-01-08T12:13:32.373Z,6.50
2019-01-08T12:15:58.331Z,6.50
2019-01-08T12:18:25.072Z,6.80
2019-01-08T12:20:51.804Z,6.90
2019-01-08T12:23:18.531Z,7.10
2019-01-08T12:25:44.493Z,7.10
2019-01-08T12:28:10.486Z,7.30
2019-01-08T12:30:36.443Z,7.40
2019-01-08T12:33:03.152Z,7.50
2019-01-08T12:35:29.883Z,7.50
2019-01-08T12:37:55.874Z,7.50
2019-01-08T12:40:21.914Z,7.30
2019-01-08T12:42:47.870Z,6.90
2019-01-08T12:45:14.593Z,6.60
2019-01-08T12:47:40.596Z,6.60
2019-01-08T12:50:06.573Z,6.60
2019-01-08T12:52:33.301Z,6.70
2019-01-08T12:54:59.282Z,6.70
2019-01-08T12:57:25.283Z,6.90
2019-01-08T12:59:51.281Z,7.00
2019-01-08T13:02:17.308Z,7.20
2019-01-08T13:04:43.298Z,7.10
2019-01-08T13:07:09.277Z,7.00
2019-01-08T13:09:35.258Z,7.10
2019-01-08T13:12:01.221Z,7.00
2019-01-08T13:14:27.226Z,7.00
2019-01-08T13:16:53.173Z,6.90
2019-01-08T13:19:19.194Z,6.80
2019-01-08T13:21:45.155Z,6.90
2019-01-08T13:24:11.136Z,7.00
2019-01-08T13:26:37.114Z,7.10
2019-01-08T13:29:03.077Z,7.00
2019-01-08T13:31:29.080Z,7.10
2019-01-08T13:33:55.768Z,7.30
2019-01-08T13:36:21.715Z,7.30
2019-01-08T13:38:47.705Z,7.10
2019-01-08T13:41:13.677Z,6.90
2019-01-08T13:43:40.381Z,6.60
2019-01-08T13:46:06.365Z,6.60
2019-01-08T13:48:32.336Z,6.60
2019-01-08T13:50:58.318Z,6.70
2019-01-08T13:53:24.276Z,6.70
2019-01-08T13:55:50.268Z,6.80
2019-01-08T13:58:16.248Z,7.00
2019-01-08T14:00:42.964Z,7.10
2019-01-08T14:03:08.949Z,7.10
2019-01-08T14:05:34.944Z,7.00
2019-01-08T14:10:56.253Z,6.70
2019-01-08T14:13:14.506Z,6.60
2019-01-08T14:15:41.212Z,6.50
2019-01-08T14:18:07.210Z,6.40
2019-01-08T14:20:33.177Z,6.50
2019-01-08T14:22:59.170Z,6.50
2019-01-08T14:25:25.124Z,6.60
2019-01-08T14:27:51.127Z,6.80
2019-01-08T14:30:17.098Z,6.90
2019-01-08T14:32:43.819Z,7.00
2019-01-08T14:35:09.758Z,7.00
2019-01-08T14:37:36.516Z,7.10
2019-01-08T14:40:02.486Z,7.10
2019-01-08T14:42:28.478Z,7.10
2019-01-08T14:44:54.420Z,7.10
2019-01-08T14:47:20.399Z,7.10
2019-01-08T14:49:46.351Z,7.10
2019-01-08T14:52:12.315Z,7.10
2019-01-08T14:54:38.292Z,7.00
2019-01-08T14:57:04.261Z,6.80
2019-01-08T14:59:30.230Z,6.70
2019-01-08T15:01:56.178Z,6.60
2019-01-08T15:04:22.173Z,6.50
2019-01-08T15:06:48.126Z,6.50
2019-01-08T15:09:14.098Z,6.50
2019-01-08T15:11:40.070Z,6.50
2019-01-08T15:14:06.059Z,6.40
2019-01-08T15:16:32.005Z,6.30
2019-01-08T15:18:58.011Z,6.30
2019-01-08T15:21:23.979Z,6.30
2019-01-08T15:23:49.963Z,6.30
2019-01-08T15:26:15.923Z,6.30
2019-01-08T15:28:41.875Z,6.30
2019-01-08T15:31:08.593Z,6.30
2019-01-08T15:33:34.550Z,6.30
2019-01-08T15:36:00.523Z,6.20
2019-01-08T15:38:26.456Z,6.40
2019-01-08T15:40:52.431Z,6.40
2019-01-08T15:43:18.430Z,6.40
2019-01-08T15:45:44.401Z,6.40
2019-01-08T15:48:10.377Z,6.30
2019-01-08T15:50:36.356Z,6.30
2019-01-08T15:53:02.322Z,6.10
2019-01-08T15:55:28.307Z,5.90
2019-01-08T15:57:54.274Z,5.80
2019-01-08T16:00:20.233Z,5.60
2019-01-08T16:02:46.218Z,5.50
2019-01-08T16:05:12.177Z,5.50
2019-01-08T16:07:38.166Z,5.60
2019-01-08T16:10:04.121Z,5.60
2019-01-08T16:12:30.122Z,5.70
2019-01-08T16:14:56.068Z,5.60
2019-01-08T16:17:22.055Z,5.70
2019-01-08T16:19:48.037Z,5.70
2019-01-08T16:22:14.028Z,5.70
2019-01-08T16:24:39.983Z,5.80
2019-01-08T16:27:05.984Z,5.90
2019-01-08T16:29:31.932Z,6.10
2019-01-08T16:31:57.913Z,6.10
2019-01-08T16:34:23.884Z,6.00
2019-01-08T16:36:49.863Z,5.90
2019-01-08T16:39:15.818Z,5.90
2019-01-08T16:41:41.799Z,5.80
2019-01-08T16:44:07.777Z,5.10
2019-01-08T16:46:34.475Z,5.50
2019-01-08T16:49:00.465Z,5.50
2019-01-08T16:51:26.434Z,5.50
2019-01-08T16:53:52.452Z,5.40
2019-01-08T16:56:19.708Z,5.30
2019-01-08T16:58:44.456Z,5.40
2019-01-08T17:01:10.458Z,5.50
2019-01-08T17:03:37.184Z,5.60
2019-01-08T17:06:03.149Z,5.70
2019-01-08T17:08:29.108Z,5.80
2019-01-08T17:10:55.068Z,5.90
2019-01-08T17:13:21.815Z,6.00
2019-01-08T17:15:48.516Z,6.00
2019-01-08T17:18:14.487Z,6.00
2019-01-08T17:20:41.179Z,5.90
2019-01-08T17:23:07.168Z,5.90
2019-01-08T17:25:33.117Z,5.90
2019-01-08T17:27:59.121Z,5.90
2019-01-08T17:30:25.099Z,5.90
2019-01-08T17:32:51.044Z,6.00
2019-01-08T17:35:17.033Z,6.00
2019-01-08T17:37:42.985Z,6.00
2019-01-08T17:40:09.697Z,6.10
2019-01-08T17:42:36.418Z,6.00
2019-01-08T17:45:02.437Z,6.00
2019-01-08T17:47:28.390Z,6.00
2019-01-08T17:49:54.366Z,6.00
2019-01-08T17:52:20.335Z,6.00
2019-01-08T17:54:47.042Z,5.90
2019-01-08T17:57:13.020Z,5.90
2019-01-08T17:59:39.701Z,5.80
2019-01-08T18:02:05.682Z,5.80
2019-01-08T18:04:32.373Z,5.80
2019-01-08T18:06:58.358Z,5.80
2019-01-08T18:09:24.312Z,5.90
2019-01-08T18:11:50.311Z,5.90
2019-01-08T18:14:16.297Z,5.90
2019-01-08T18:16:43.021Z,6.00
2019-01-08T18:19:08.964Z,5.90
2019-01-08T18:21:35.706Z,6.00
2019-01-08T18:24:02.408Z,6.00
2019-01-08T18:26:28.375Z,6.00
2019-01-08T18:28:54.364Z,6.00
2019-01-08T18:31:20.360Z,6.00
2019-01-08T18:33:51.297Z,6.00
2019-01-08T18:36:12.328Z,6.00
2019-01-08T18:38:38.306Z,6.00
2019-01-08T18:41:04.278Z,6.10
2019-01-08T18:43:30.259Z,6.10
2019-01-08T18:45:56.234Z,6.10
2019-01-08T18:48:22.201Z,6.20
2019-01-08T18:50:48.159Z,6.20
2019-01-08T18:53:14.164Z,5.60
2019-01-08T18:55:40.162Z,5.30
2019-01-08T18:58:06.159Z,5.10
2019-01-08T19:00:32.853Z,5.00
2019-01-08T19:02:58.847Z,5.00
2019-01-08T19:05:24.836Z,5.10
2019-01-08T19:07:51.581Z,5.00
2019-01-08T19:10:17.540Z,5.00
2019-01-08T19:12:43.529Z,5.10
2019-01-08T19:15:10.225Z,5.10
2019-01-08T19:17:36.187Z,5.20
2019-01-08T19:20:02.926Z,5.20
2019-01-08T19:22:29.612Z,5.20
2019-01-08T19:24:55.635Z,5.20
2019-01-08T19:27:21.593Z,5.20
2019-01-08T19:29:47.584Z,5.10
2019-01-08T19:32:13.602Z,5.10
2019-01-08T19:34:39.693Z,5.00
2019-01-08T19:37:06.418Z,5.10
2019-01-08T19:39:32.436Z,5.10
2019-01-08T19:41:59.165Z,5.20
2019-01-08T19:44:25.169Z,5.10
2019-01-08T19:46:51.133Z,5.20
2019-01-08T19:49:17.854Z,5.20
2019-01-08T19:51:43.795Z,5.30
2019-01-08T19:54:10.506Z,5.20
2019-01-08T19:56:36.556Z,5.20
2019-01-08T19:59:02.552Z,5.30
2019-01-08T20:01:28.527Z,5.30
2019-01-08T20:03:54.469Z,5.20
2019-01-08T20:06:20.440Z,5.10
2019-01-08T20:08:48.788Z,5.00
2019-01-08T20:11:12.423Z,5.00
2019-01-08T20:13:38.396Z,5.00
2019-01-08T20:16:04.384Z,5.00
2019-01-08T20:18:30.346Z,5.00
2019-01-08T20:20:56.394Z,5.00
2019-01-08T20:23:23.095Z,5.10
2019-01-08T20:25:49.043Z,5.10
2019-01-08T20:28:15.051Z,5.10
2019-01-08T20:30:41.067Z,5.20
2019-01-08T20:33:07.061Z,5.20
2019-01-08T20:35:33.019Z,5.10
2019-01-08T20:37:59.013Z,5.10
2019-01-08T20:40:24.991Z,5.10
2019-01-08T20:42:51.695Z,4.80
2019-01-08T20:45:17.676Z,4.80
2019-01-08T20:47:43.626Z,4.80
2019-01-08T20:50:09.641Z,4.80
2019-01-08T20:52:35.598Z,4.80
2019-01-08T20:55:01.580Z,4.80
2019-01-08T20:57:27.537Z,4.90
2019-01-08T20:59:53.502Z,5.00
2019-01-08T21:02:20.199Z,5.20
2019-01-08T21:04:46.199Z,5.20
2019-01-08T21:07:12.140Z,5.00
2019-01-08T21:09:38.127Z,4.70
2019-01-08T21:12:04.111Z,4.50
2019-01-08T21:14:30.053Z,4.40
2019-01-08T21:16:56.781Z,4.20
2019-01-08T21:19:22.744Z,4.20
2019-01-08T21:21:48.935Z,4.20
2019-01-08T21:24:14.780Z,4.20
2019-01-08T21:26:40.764Z,4.20
2019-01-08T21:29:06.711Z,4.30
2019-01-08T21:31:32.726Z,4.30
2019-01-08T21:33:59.442Z,4.30
2019-01-08T21:36:25.419Z,4.30
2019-01-08T21:38:51.376Z,4.40
2019-01-08T21:41:17.397Z,4.40
2019-01-08T21:43:43.426Z,4.50
2019-01-08T21:46:09.768Z,4.70
2019-01-08T21:48:36.541Z,4.60
2019-01-08T21:51:02.494Z,4.60
2019-01-08T21:53:28.473Z,4.70
2019-01-08T21:55:55.211Z,4.50
2019-01-08T21:58:21.982Z,4.40
2019-01-08T22:00:48.029Z,4.40
2019-01-08T22:03:14.037Z,4.50
2019-01-08T22:05:39.996Z,4.50
2019-01-08T22:08:06.014Z,4.50
2019-01-08T22:10:31.998Z,4.60
2019-01-08T22:12:57.984Z,4.60
2019-01-08T22:15:23.938Z,4.60
2019-01-08T22:17:49.915Z,4.60
2019-01-08T22:20:15.923Z,4.60
2019-01-08T22:22:41.883Z,4.70
2019-01-08T22:25:08.607Z,4.80
2019-01-08T22:27:34.609Z,4.80
2019-01-08T22:30:00.723Z,4.80
2019-01-08T22:32:27.359Z,4.70
2019-01-08T22:35:01.742Z,4.70
2019-01-08T22:37:19.390Z,4.80
2019-01-08T22:39:45.374Z,4.70
2019-01-08T22:42:12.064Z,4.70
2019-01-08T22:44:38.051Z,4.70
2019-01-08T22:47:04.756Z,4.80
2019-01-08T22:49:30.699Z,4.80
2019-01-08T22:51:56.670Z,4.80
2019-01-08T22:54:22.630Z,4.90
2019-01-08T22:56:48.614Z,5.00
2019-01-08T22:59:14.575Z,5.20
2019-01-08T23:01:40.572Z,5.20
2019-01-08T23:04:06.545Z,5.30
2019-01-08T23:06:33.260Z,5.40
2019-01-08T23:08:59.217Z,5.40
2019-01-08T23:11:25.948Z,5.30
2019-01-08T23:13:51.904Z,5.30
2019-01-08T23:16:17.921Z,5.20
2019-01-08T23:18:43.896Z,5.20
2019-01-08T23:21:09.855Z,5.20
2019-01-08T23:23:35.865Z,5.20
2019-01-08T23:26:02.592Z,5.20
2019-01-08T23:28:29.327Z,5.20
2019-01-08T23:30:56.083Z,5.10
2019-01-08T23:33:22.809Z,5.10
2019-01-08T23:35:48.785Z,5.10
2019-01-08T23:38:14.801Z,5.20
2019-01-08T23:40:40.755Z,5.20
2019-01-08T23:43:06.759Z,5.10
2019-01-08T23:45:32.732Z,5.20
2019-01-08T23:47:59.458Z,5.00
2019-01-08T23:50:25.408Z,5.00
2019-01-08T23:52:52.126Z,4.90
2019-01-08T23:55:18.083Z,4.90
2019-01-08T23:57:44.070Z,4.90
